Time;durP1;ratioP1;P1;durP2;ratioP2;P2;SDS_P1;SDS_P2;PMS_P1;PMS_P2;Temp;Humidity;BMP_temperature;BMP_pressure;BME280_temperature;BME280_humidity;BME280_pressure;Samples;Min_cycle;Max_cycle;Signal;HPM_P1;HPM_P2
2022/02/17 00:00:59;;;;;;;0.40;0.30;;;;;;;;;;5044160;28;20068;-72
2022/02/17 00:03:32;;;;;;;1.15;0.40;;;;;;;;;;5044436;28;20438;-72
2022/02/17 00:06:01;;;;;;;;;;;;;;;;;;5044949;28;20051;-73
2022/02/17 00:08:29;;;;;;;0.45;0.35;;;;;;;;;;5043476;28;19916;-73
2022/02/17 00:10:54;;;;;;;0.40;0.40;;;;;;;;;;5044611;28;20029;-73
2022/02/17 00:13:22;;;;;;;1.60;0.40;;;;;;;;;;5026056;28;20034;-73
2022/02/17 00:15:50;;;;;;;1.38;0.57;;;;;;;;;;5043859;28;20033;-74
2022/02/17 00:18:21;;;;;;;0.98;0.50;;;;;;;;;;5044108;28;20032;-73
2022/02/17 00:20:56;;;;;;;0.80;0.63;;;;;;;;;;5044572;28;20044;-73
2022/02/17 00:23:23;;;;;;;3.58;0.77;;;;;;;;;;5044577;28;20075;-73
2022/02/17 00:25:51;;;;;;;2.15;0.73;;;;;;;;;;5026049;28;20029;-73
2022/02/17 00:28:17;;;;;;;1.30;0.77;;;;;;;;;;5043128;28;20041;-73
2022/02/17 00:30:43;;;;;;;1.70;0.88;;;;;;;;;;5026006;28;20025;-73
2022/02/17 00:33:10;;;;;;;1.27;0.88;;;;;;;;;;5043977;28;20021;-73
2022/02/17 00:35:39;;;;;;;4.13;0.90;;;;;;;;;;5043970;28;20031;-73
2022/02/17 00:38:08;;;;;;;1.10;0.80;;;;;;;;;;5044355;28;20030;-73
2022/02/17 00:40:36;;;;;;;1.02;0.80;;;;;;;;;;5058889;28;20423;-73
2022/02/17 00:43:01;;;;;;;1.20;0.77;;;;;;;;;;5043923;28;20096;-73
2022/02/17 00:45:29;;;;;;;0.80;0.70;;;;;;;;;;5043656;28;20040;-73
2022/02/17 00:47:57;;;;;;;1.30;0.80;;;;;;;;;;5025917;28;20029;-73
2022/02/17 00:50:24;;;;;;;2.72;0.93;;;;;;;;;;5043633;28;20037;-73
2022/02/17 00:52:58;;;;;;;1.90;0.82;;;;;;;;;;5043811;28;20108;-73
2022/02/17 00:55:26;;;;;;;2.70;0.90;;;;;;;;;;5043841;28;20030;-73
2022/02/17 00:57:54;;;;;;;0.95;0.88;;;;;;;;;;5043777;28;20083;-73
2022/02/17 01:00:20;;;;;;;0.93;0.68;;;;;;;;;;5043266;28;20097;-73
2022/02/17 01:02:48;;;;;;;3.05;0.90;;;;;;;;;;5025562;28;20037;-73
2022/02/17 01:05:20;;;;;;;1.25;0.70;;;;;;;;;;5043370;28;20025;-73
2022/02/17 01:07:51;;;;;;;1.38;0.80;;;;;;;;;;5043473;28;20049;-73
2022/02/17 01:10:21;;;;;;;1.35;0.70;;;;;;;;;;5042892;28;20525;-73
2022/02/17 01:12:52;;;;;;;2.97;0.98;;;;;;;;;;5042809;28;20038;-73
2022/02/17 01:15:17;;;;;;;1.00;0.82;;;;;;;;;;5043205;28;20033;-73
2022/02/17 01:17:45;;;;;;;2.80;1.15;;;;;;;;;;5043497;28;20037;-73
2022/02/17 01:20:19;;;;;;;1.70;1.00;;;;;;;;;;5042747;28;20025;-73
2022/02/17 01:22:45;;;;;;;3.25;1.20;;;;;;;;;;5043339;28;20132;-73
2022/02/17 01:25:15;;;;;;;1.60;1.20;;;;;;;;;;5043069;28;20529;-73
2022/02/17 01:27:43;;;;;;;3.75;1.10;;;;;;;;;;5043133;28;20052;-74
2022/02/17 01:30:17;;;;;;;2.80;0.93;;;;;;;;;;5042641;28;20037;-73
2022/02/17 01:32:45;;;;;;;1.98;0.93;;;;;;;;;;5042980;28;20100;-73
2022/02/17 01:35:15;;;;;;;0.63;0.52;;;;;;;;;;5042854;28;20036;-73
2022/02/17 01:37:46;;;;;;;1.15;0.50;;;;;;;;;;5042727;28;20035;-73
2022/02/17 01:40:13;;;;;;;1.23;0.47;;;;;;;;;;5042399;28;20049;-73
2022/02/17 01:42:41;;;;;;;2.85;0.90;;;;;;;;;;5042756;28;20029;-74
2022/02/17 01:45:08;;;;;;;2.22;0.68;;;;;;;;;;5042216;28;20033;-73
2022/02/17 01:47:34;;;;;;;2.40;0.90;;;;;;;;;;5024818;28;20022;-74
2022/02/17 01:50:00;;;;;;;2.20;0.82;;;;;;;;;;5042681;28;20036;-73
2022/02/17 01:52:31;;;;;;;2.47;0.90;;;;;;;;;;5024519;28;20033;-73
2022/02/17 01:54:57;;;;;;;2.15;1.20;;;;;;;;;;5042401;28;20044;-72
2022/02/17 01:57:25;;;;;;;4.53;1.20;;;;;;;;;;5043021;28;20084;-74
2022/02/17 01:59:51;;;;;;;3.17;1.67;;;;;;;;;;5042245;28;20048;-74
2022/02/17 02:02:16;;;;;;;3.67;1.40;;;;;;;;;;5024772;28;20033;-74
2022/02/17 02:04:43;;;;;;;3.42;1.23;;;;;;;;;;5042504;28;20081;-73
2022/02/17 02:07:12;;;;;;;4.05;1.60;;;;;;;;;;5041324;28;20040;-74
2022/02/17 02:09:40;;;;;;;5.32;2.30;;;;;;;;;;5042160;28;20044;-74
2022/02/17 02:12:11;;;;;;;3.72;1.40;;;;;;;;;;5042403;28;20144;-74
2022/02/17 02:14:53;;;;;;;6.00;1.75;;;;;;;;;;5042182;28;20030;-74
2022/02/17 02:17:25;;;;;;;8.15;1.58;;;;;;;;;;5042456;28;20029;-74
2022/02/17 02:19:59;;;;;;;6.05;1.73;;;;;;;;;;5042157;28;20030;-74
2022/02/17 02:22:26;;;;;;;9.63;1.92;;;;;;;;;;5042611;28;20057;-74
2022/02/17 02:25:00;;;;;;;8.43;1.60;;;;;;;;;;5042062;28;20025;-74
2022/02/17 02:27:29;;;;;;;6.93;1.40;;;;;;;;;;5057691;28;20029;-73
2022/02/17 02:29:55;;;;;;;5.68;1.10;;;;;;;;;;5042128;28;20087;-74
2022/02/17 02:32:24;;;;;;;5.30;1.30;;;;;;;;;;5024676;28;20039;-74
2022/02/17 02:34:52;;;;;;;7.97;1.65;;;;;;;;;;5042352;28;20029;-74
2022/02/17 02:37:20;;;;;;;5.40;1.95;;;;;;;;;;5024572;28;20463;-74
2022/02/17 02:39:48;;;;;;;7.40;1.63;;;;;;;;;;5042228;28;20370;-74
2022/02/17 02:42:16;;;;;;;8.93;1.70;;;;;;;;;;5041786;28;20041;-73
2022/02/17 02:44:42;;;;;;;6.20;1.65;;;;;;;;;;5042014;28;20060;-74
2022/02/17 02:47:10;;;;;;;4.50;1.40;;;;;;;;;;5042097;28;20029;-74
2022/02/17 02:49:38;;;;;;;4.63;1.40;;;;;;;;;;5041760;28;20033;-74
2022/02/17 02:52:04;;;;;;;7.43;1.63;;;;;;;;;;5045476;28;20029;-74
2022/02/17 02:54:41;;;;;;;5.13;1.70;;;;;;;;;;5045107;28;20492;-74
2022/02/17 02:57:07;;;;;;;6.82;1.63;;;;;;;;;;5045637;28;20251;-74
2022/02/17 02:59:34;;;;;;;9.48;1.75;;;;;;;;;;5045623;28;20029;-74
2022/02/17 03:02:00;;;;;;;6.22;2.10;;;;;;;;;;5045790;28;20025;-74
2022/02/17 03:04:25;;;;;;;7.38;1.75;;;;;;;;;;5045614;28;20049;-74
2022/02/17 03:06:51;;;;;;;5.82;2.00;;;;;;;;;;5045253;28;20067;-74
2022/02/17 03:09:19;;;;;;;4.20;1.92;;;;;;;;;;5060405;28;20033;-75
2022/02/17 03:11:45;;;;;;;8.02;2.42;;;;;;;;;;5045166;28;20462;-74
2022/02/17 03:14:12;;;;;;;7.60;2.60;;;;;;;;;;5045039;28;20083;-74
2022/02/17 03:16:38;;;;;;;7.22;2.10;;;;;;;;;;5044572;28;20043;-74
2022/02/17 03:19:13;;;;;;;8.05;2.35;;;;;;;;;;5045000;28;20112;-74
2022/02/17 03:21:41;;;;;;;7.00;2.22;;;;;;;;;;5027492;28;20165;-75
2022/02/17 03:24:09;;;;;;;5.35;2.67;;;;;;;;;;5044490;28;20053;-74
2022/02/17 03:26:35;;;;;;;7.90;2.50;;;;;;;;;;5044862;28;20471;-74
2022/02/17 03:29:04;;;;;;;5.88;2.60;;;;;;;;;;5045132;28;20029;-74
2022/02/17 03:31:32;;;;;;;5.28;2.67;;;;;;;;;;5043631;28;20026;-74
2022/02/17 03:34:01;;;;;;;3.97;2.42;;;;;;;;;;5027011;28;20034;-74
2022/02/17 03:36:31;;;;;;;6.43;2.28;;;;;;;;;;5027053;28;20045;-74
2022/02/17 03:39:00;;;;;;;6.63;2.30;;;;;;;;;;5044140;28;20116;-74
2022/02/17 03:41:30;;;;;;;5.68;2.50;;;;;;;;;;5045151;28;20029;-74
2022/02/17 03:43:58;;;;;;;4.28;1.90;;;;;;;;;;5026885;28;20029;-74
2022/02/17 03:46:26;;;;;;;4.53;2.15;;;;;;;;;;5026751;28;20026;-74
2022/02/17 03:48:59;;;;;;;3.20;1.55;;;;;;;;;;5026682;28;20037;-74
2022/02/17 03:51:27;;;;;;;4.00;1.77;;;;;;;;;;5044393;28;20033;-74
2022/02/17 03:53:55;;;;;;;2.85;1.45;;;;;;;;;;5044759;28;20096;-74
2022/02/17 03:56:23;;;;;;;2.35;1.10;;;;;;;;;;5044652;28;20060;-74
2022/02/17 03:59:03;;;;;;;4.07;1.40;;;;;;;;;;5044587;28;20050;-74
2022/02/17 04:01:35;;;;;;;1.92;1.17;;;;;;;;;;5044140;28;20041;-74
2022/02/17 04:04:06;;;;;;;2.78;1.02;;;;;;;;;;5044708;28;20033;-74
2022/02/17 04:06:35;;;;;;;3.03;1.15;;;;;;;;;;5044382;28;20025;-74
2022/02/17 04:09:05;;;;;;;2.83;1.27;;;;;;;;;;5043719;28;20097;-73
2022/02/17 04:11:31;;;;;;;2.08;1.13;;;;;;;;;;5043906;28;20030;-74
2022/02/17 04:13:57;;;;;;;2.33;1.10;;;;;;;;;;5044023;28;20034;-74
2022/02/17 04:16:25;;;;;;;2.33;1.17;;;;;;;;;;5043796;28;20082;-73
2022/02/17 04:18:51;;;;;;;2.33;1.30;;;;;;;;;;5044331;28;20372;-74
2022/02/17 04:21:22;;;;;;;2.35;1.27;;;;;;;;;;5026098;28;20057;-74
2022/02/17 04:23:50;;;;;;;1.50;0.80;;;;;;;;;;5025942;28;20037;-74
2022/02/17 04:26:17;;;;;;;1.52;0.90;;;;;;;;;;5043872;28;20030;-75
2022/02/17 04:28:49;;;;;;;3.78;1.10;;;;;;;;;;5043542;28;20025;-74
2022/02/17 04:31:19;;;;;;;1.38;0.90;;;;;;;;;;5044328;28;20025;-74
2022/02/17 04:33:47;;;;;;;4.65;1.10;;;;;;;;;;5043857;28;20036;-74
2022/02/17 04:36:13;;;;;;;2.80;1.08;;;;;;;;;;5043297;28;20167;-73
2022/02/17 04:38:41;;;;;;;2.30;1.27;;;;;;;;;;5043064;28;20025;-74
2022/02/17 04:43:57;;;;;;;2.38;0.95;;;;;;;;;;5043180;28;20101;-74
2022/02/17 04:46:28;;;;;;;2.75;1.17;;;;;;;;;;5043551;28;20477;-74
2022/02/17 04:49:01;;;;;;;2.00;1.30;;;;;;;;;;5043369;28;20029;-74
2022/02/17 04:51:30;;;;;;;2.20;1.13;;;;;;;;;;5043148;28;20052;-74
2022/02/17 04:53:55;;;;;;;1.98;1.13;;;;;;;;;;5043168;28;20043;-74
2022/02/17 04:56:21;;;;;;;2.65;1.50;;;;;;;;;;5025235;28;20030;-74
2022/02/17 04:58:46;;;;;;;3.38;1.60;;;;;;;;;;5042745;28;20033;-74
2022/02/17 05:01:14;;;;;;;3.13;1.35;;;;;;;;;;5043309;28;20025;-75
2022/02/17 05:03:42;;;;;;;3.65;1.20;;;;;;;;;;5025283;28;20029;-75
2022/02/17 05:06:11;;;;;;;2.45;1.08;;;;;;;;;;5043368;28;20036;-75
2022/02/17 05:08:36;;;;;;;2.92;1.02;;;;;;;;;;5042864;28;20037;-75
2022/02/17 05:11:02;;;;;;;2.03;1.13;;;;;;;;;;5043022;28;20033;-74
2022/02/17 05:13:28;;;;;;;1.40;0.80;;;;;;;;;;5042252;28;20056;-75
2022/02/17 05:15:57;;;;;;;2.38;1.00;;;;;;;;;;5043000;28;20466;-74
2022/02/17 05:18:22;;;;;;;2.55;0.95;;;;;;;;;;5025139;28;20034;-74
2022/02/17 05:20:48;;;;;;;1.80;0.88;;;;;;;;;;5025093;28;20034;-75
2022/02/17 05:23:19;;;;;;;2.28;1.00;;;;;;;;;;5042598;28;20357;-75
2022/02/17 05:25:47;;;;;;;4.50;1.05;;;;;;;;;;5043128;28;20033;-74
2022/02/17 05:28:16;;;;;;;3.28;1.05;;;;;;;;;;5041515;28;20029;-74
2022/02/17 05:30:49;;;;;;;2.25;1.02;;;;;;;;;;5042753;28;20057;-74
2022/02/17 05:33:18;;;;;;;2.15;0.90;;;;;;;;;;5042703;28;20021;-74
2022/02/17 05:35:49;;;;;;;2.38;0.93;;;;;;;;;;5043121;28;20037;-74
2022/02/17 05:38:18;;;;;;;1.13;0.60;;;;;;;;;;5042829;28;20056;-74
2022/02/17 05:40:49;;;;;;;0.85;0.50;;;;;;;;;;5042877;28;20049;-74
2022/02/17 05:43:14;;;;;;;0.30;0.30;;;;;;;;;;5042751;28;20037;-74
2022/02/17 05:45:42;;;;;;;1.42;0.30;;;;;;;;;;5025390;28;20551;-74
2022/02/17 05:48:10;;;;;;;0.30;0.30;;;;;;;;;;5042288;28;20041;-73
2022/02/17 05:50:36;;;;;;;0.20;0.20;;;;;;;;;;5024780;28;20067;-74
2022/02/17 05:53:02;;;;;;;0.57;0.30;;;;;;;;;;5042190;28;20075;-74
2022/02/17 05:55:28;;;;;;;0.57;0.50;;;;;;;;;;5042247;28;20125;-73
2022/02/17 05:57:54;;;;;;;0.20;0.20;;;;;;;;;;5042800;28;20053;-73
2022/02/17 06:00:22;;;;;;;0.63;0.40;;;;;;;;;;5042508;28;20079;-73
2022/02/17 06:02:52;;;;;;;0.80;0.50;;;;;;;;;;5024727;28;20364;-73
2022/02/17 06:05:18;;;;;;;2.13;0.57;;;;;;;;;;5042415;28;20025;-74
2022/02/17 06:07:44;;;;;;;1.50;0.63;;;;;;;;;;5024734;28;20086;-74
2022/02/17 06:10:10;;;;;;;1.42;0.68;;;;;;;;;;5041580;28;20081;-73
2022/02/17 06:12:46;;;;;;;0.90;0.50;;;;;;;;;;5042120;28;20072;-73
2022/02/17 06:15:13;;;;;;;1.05;0.50;;;;;;;;;;5042235;28;20517;-73
2022/02/17 06:17:39;;;;;;;0.60;0.50;;;;;;;;;;5042281;28;20038;-73
2022/02/17 06:20:06;;;;;;;0.93;0.50;;;;;;;;;;5042211;28;20037;-73
2022/02/17 06:22:32;;;;;;;0.70;0.40;;;;;;;;;;5024754;28;20309;-74
2022/02/17 06:24:58;;;;;;;0.47;0.45;;;;;;;;;;5026276;28;20025;-74
2022/02/17 06:27:26;;;;;;;0.68;0.30;;;;;;;;;;5061346;28;20072;-74
2022/02/17 06:29:54;;;;;;;0.25;0.22;;;;;;;;;;5046134;28;20036;-73
2022/02/17 06:32:22;;;;;;;0.28;0.28;;;;;;;;;;5045174;28;20030;-74
2022/02/17 06:34:47;;;;;;;0.90;0.40;;;;;;;;;;5046268;28;20382;-74
2022/02/17 06:37:16;;;;;;;0.65;0.40;;;;;;;;;;5045766;28;20075;-73
2022/02/17 06:39:42;;;;;;;0.28;0.28;;;;;;;;;;5046109;28;20152;-74
2022/02/17 06:42:08;;;;;;;0.35;0.32;;;;;;;;;;5028434;28;20420;-73
2022/02/17 06:44:36;;;;;;;0.65;0.50;;;;;;;;;;5045171;28;20120;-73
2022/02/17 06:47:01;;;;;;;0.50;0.40;;;;;;;;;;5044832;28;20026;-74
2022/02/17 06:49:32;;;;;;;0.52;0.40;;;;;;;;;;5045962;28;20064;-74
2022/02/17 06:51:58;;;;;;;0.60;0.50;;;;;;;;;;5045755;28;20037;-74
2022/02/17 06:54:23;;;;;;;1.05;0.57;;;;;;;;;;5045637;28;20051;-74
2022/02/17 06:56:49;;;;;;;1.00;0.70;;;;;;;;;;5045668;28;20151;-73
2022/02/17 06:59:15;;;;;;;1.27;0.70;;;;;;;;;;5045187;28;20030;-73
2022/02/17 07:01:42;;;;;;;1.33;0.60;;;;;;;;;;5045258;28;20079;-73
2022/02/17 07:04:08;;;;;;;0.88;0.40;;;;;;;;;;5045156;28;20109;-73
2022/02/17 07:06:36;;;;;;;1.98;0.60;;;;;;;;;;5045190;28;20045;-73
2022/02/17 07:09:05;;;;;;;1.02;0.50;;;;;;;;;;5044793;28;20076;-73
2022/02/17 07:11:31;;;;;;;1.35;0.60;;;;;;;;;;5043753;28;20041;-73
2022/02/17 07:14:01;;;;;;;0.82;0.60;;;;;;;;;;5026521;28;20056;-72
2022/02/17 07:16:28;;;;;;;1.15;0.47;;;;;;;;;;5044463;28;20036;-72
2022/02/17 07:18:56;;;;;;;1.85;0.90;;;;;;;;;;5044862;28;20526;-72
2022/02/17 07:21:22;;;;;;;0.77;0.60;;;;;;;;;;5045147;28;20026;-72
2022/02/17 07:23:50;;;;;;;0.40;0.40;;;;;;;;;;5027036;28;20033;-72
2022/02/17 07:26:15;;;;;;;0.93;0.55;;;;;;;;;;5045341;28;20040;-72
2022/02/17 07:28:41;;;;;;;1.10;0.45;;;;;;;;;;5027206;28;20018;-72
2022/02/17 07:31:07;;;;;;;1.17;0.50;;;;;;;;;;5045396;28;20045;-72
2022/02/17 07:33:35;;;;;;;0.75;0.50;;;;;;;;;;5026989;28;20022;-72
2022/02/17 07:36:01;;;;;;;0.70;0.60;;;;;;;;;;5044052;28;20025;-73
2022/02/17 07:38:27;;;;;;;0.57;0.43;;;;;;;;;;5044338;28;20093;-73
2022/02/17 07:40:52;;;;;;;0.57;0.40;;;;;;;;;;5059136;28;20045;-73
2022/02/17 07:43:18;;;;;;;1.30;0.60;;;;;;;;;;5043978;28;20032;-73
2022/02/17 07:45:46;;;;;;;0.90;0.60;;;;;;;;;;5044728;28;20030;-72
2022/02/17 07:48:12;;;;;;;0.63;0.40;;;;;;;;;;5044798;28;20072;-72
2022/02/17 07:50:37;;;;;;;0.73;0.40;;;;;;;;;;5044922;28;20026;-72
2022/02/17 07:53:03;;;;;;;0.47;0.40;;;;;;;;;;5045024;28;20041;-72
2022/02/17 07:55:34;;;;;;;1.77;0.85;;;;;;;;;;5026821;28;20025;-72
2022/02/17 07:58:10;;;;;;;0.75;0.50;;;;;;;;;;5045009;28;20026;-72
2022/02/17 08:00:36;;;;;;;1.30;0.60;;;;;;;;;;5027042;28;20036;-72
2022/02/17 08:03:01;;;;;;;0.90;0.57;;;;;;;;;;5044638;28;20034;-72
2022/02/17 08:05:30;;;;;;;0.70;0.60;;;;;;;;;;5044902;28;20038;-72
2022/02/17 08:07:56;;;;;;;2.28;0.70;;;;;;;;;;5026511;28;20040;-72
2022/02/17 08:10:23;;;;;;;1.10;0.70;;;;;;;;;;5059426;28;20045;-72
2022/02/17 08:12:48;;;;;;;2.72;0.88;;;;;;;;;;5044558;28;20075;-72
2022/02/17 08:15:14;;;;;;;0.80;0.80;;;;;;;;;;5044537;28;20539;-72
2022/02/17 08:17:42;;;;;;;1.95;0.68;;;;;;;;;;5044575;28;20037;-72
2022/02/17 08:20:10;;;;;;;1.27;0.88;;;;;;;;;;5059549;28;20032;-71
2022/02/17 08:22:36;;;;;;;1.50;0.98;;;;;;;;;;5026474;28;20060;-71
2022/02/17 08:25:02;;;;;;;2.50;0.90;;;;;;;;;;5044170;28;20029;-71
2022/02/17 08:27:28;;;;;;;1.40;0.90;;;;;;;;;;5043872;28;20040;-72
2022/02/17 08:29:53;;;;;;;2.47;1.30;;;;;;;;;;5043894;28;20030;-72
2022/02/17 08:32:19;;;;;;;1.35;1.10;;;;;;;;;;5044364;28;20337;-71
2022/02/17 08:34:45;;;;;;;4.05;1.25;;;;;;;;;;5044134;28;20021;-71
2022/02/17 08:37:10;;;;;;;2.60;1.30;;;;;;;;;;5044142;28;20056;-71
2022/02/17 08:39:38;;;;;;;2.03;1.30;;;;;;;;;;5058876;28;20068;-72
2022/02/17 08:42:06;;;;;;;2.47;1.38;;;;;;;;;;5043906;28;20056;-72
2022/02/17 08:44:32;;;;;;;2.22;1.40;;;;;;;;;;5043641;28;20036;-72
2022/02/17 08:47:00;;;;;;;3.03;1.40;;;;;;;;;;5043930;28;20025;-72
2022/02/17 08:49:26;;;;;;;2.28;1.40;;;;;;;;;;5042771;28;20030;-73
2022/02/17 08:51:51;;;;;;;3.05;1.50;;;;;;;;;;5044001;28;20048;-72
2022/02/17 08:54:17;;;;;;;3.38;1.55;;;;;;;;;;5043503;28;20048;-72
2022/02/17 08:56:45;;;;;;;3.63;1.63;;;;;;;;;;5026108;28;20033;-72
2022/02/17 08:59:10;;;;;;;2.35;1.58;;;;;;;;;;5043702;28;20059;-72
2022/02/17 09:01:38;;;;;;;2.75;1.65;;;;;;;;;;5043961;28;20025;-73
2022/02/17 09:04:04;;;;;;;3.05;2.03;;;;;;;;;;5043409;28;20033;-73
2022/02/17 09:06:35;;;;;;;2.45;2.10;;;;;;;;;;5043694;28;20037;-71
2022/02/17 09:09:02;;;;;;;2.20;1.75;;;;;;;;;;5043682;28;20036;-72
2022/02/17 09:11:27;;;;;;;2.85;1.90;;;;;;;;;;5043692;28;20100;-73
2022/02/17 09:13:53;;;;;;;3.20;1.90;;;;;;;;;;5043362;28;20064;-73
2022/02/17 09:16:21;;;;;;;4.93;1.77;;;;;;;;;;5025773;28;20033;-73
2022/02/17 09:18:48;;;;;;;3.85;1.73;;;;;;;;;;5043463;28;20087;-73
2022/02/17 09:21:19;;;;;;;4.18;1.95;;;;;;;;;;5043395;28;20036;-72
2022/02/17 09:23:48;;;;;;;4.85;1.92;;;;;;;;;;5043243;28;20046;-73
2022/02/17 09:26:15;;;;;;;3.70;2.20;;;;;;;;;;5043322;28;20429;-73
2022/02/17 09:28:43;;;;;;;3.72;1.80;;;;;;;;;;5025438;28;20045;-72
2022/02/17 09:31:13;;;;;;;3.08;1.55;;;;;;;;;;5043076;28;20028;-72
2022/02/17 09:33:39;;;;;;;3.63;1.60;;;;;;;;;;5025156;28;20124;-72
2022/02/17 09:36:09;;;;;;;3.83;1.55;;;;;;;;;;5043503;28;20385;-70
2022/02/17 09:38:37;;;;;;;3.72;1.55;;;;;;;;;;5058612;28;20034;-72
2022/02/17 09:41:10;;;;;;;2.20;1.65;;;;;;;;;;5042829;28;20060;-73
2022/02/17 09:43:44;;;;;;;3.30;1.50;;;;;;;;;;5025098;28;20034;-73
2022/02/17 09:46:13;;;;;;;4.63;1.70;;;;;;;;;;5043032;28;20037;-72
2022/02/17 09:48:42;;;;;;;1.77;1.30;;;;;;;;;;5042979;28;20029;-73
2022/02/17 09:51:09;;;;;;;3.88;1.73;;;;;;;;;;5025395;28;20029;-72
2022/02/17 09:53:37;;;;;;;4.22;1.88;;;;;;;;;;5042868;28;20026;-73
2022/02/17 09:56:07;;;;;;;2.05;1.17;;;;;;;;;;5042841;28;20036;-71
2022/02/17 09:58:37;;;;;;;3.47;2.05;;;;;;;;;;5024959;28;20048;-71
2022/02/17 10:01:06;;;;;;;1.70;1.13;;;;;;;;;;5046751;28;20029;-71
2022/02/17 10:03:37;;;;;;;1.67;1.08;;;;;;;;;;5047070;28;20038;-72
2022/02/17 10:06:17;;;;;;;4.22;1.40;;;;;;;;;;5029116;28;20025;-72
2022/02/17 10:08:46;;;;;;;2.85;1.20;;;;;;;;;;5046752;28;20048;-72
2022/02/17 10:11:31;;;;;;;3.35;1.17;;;;;;;;;;5028922;28;20390;-73
2022/02/17 10:14:02;;;;;;;5.55;1.23;;;;;;;;;;5046687;28;20040;-73
2022/02/17 10:16:28;;;;;;;4.70;1.30;;;;;;;;;;5028753;28;20046;-72
2022/02/17 10:18:54;;;;;;;2.80;1.48;;;;;;;;;;5046671;28;20025;-72
2022/02/17 10:21:20;;;;;;;1.83;1.10;;;;;;;;;;5028874;28;20055;-73
2022/02/17 10:23:47;;;;;;;2.72;1.25;;;;;;;;;;5046665;28;20021;-72
2022/02/17 10:26:16;;;;;;;2.95;1.20;;;;;;;;;;5046928;28;20041;-73
2022/02/17 10:28:47;;;;;;;4.03;1.17;;;;;;;;;;5046386;28;20033;-73
2022/02/17 10:31:29;;;;;;;3.33;1.42;;;;;;;;;;5028825;28;20101;-74
2022/02/17 10:33:58;;;;;;;2.42;1.15;;;;;;;;;;5046110;28;20026;-72
2022/02/17 10:36:50;;;;;;;2.78;1.13;;;;;;;;;;5046668;28;20037;-73
2022/02/17 10:39:19;;;;;;;1.55;1.10;;;;;;;;;;5024124;28;20095;-73
2022/02/17 10:41:50;;;;;;;3.30;1.23;;;;;;;;;;5046411;28;20032;-71
2022/02/17 10:44:20;;;;;;;2.65;1.10;;;;;;;;;;5028217;28;20048;-72
2022/02/17 10:46:48;;;;;;;2.15;1.25;;;;;;;;;;5028446;28;20013;-72
2022/02/17 10:49:21;;;;;;;3.75;1.15;;;;;;;;;;5046270;28;20036;-72
2022/02/17 10:51:49;;;;;;;4.03;1.80;;;;;;;;;;5046380;28;20373;-73
2022/02/17 10:54:24;;;;;;;2.58;1.35;;;;;;;;;;5046068;28;20059;-73
2022/02/17 10:56:51;;;;;;;4.60;1.50;;;;;;;;;;5046254;28;20072;-72
2022/02/17 11:02:06;;;;;;;2.10;1.17;;;;;;;;;;5046412;28;20043;-73
2022/02/17 11:04:32;;;;;;;2.83;1.27;;;;;;;;;;5046233;28;20029;-72
2022/02/17 11:06:58;;;;;;;2.42;1.30;;;;;;;;;;5046281;28;20571;-72
2022/02/17 11:09:30;;;;;;;4.10;1.30;;;;;;;;;;5046057;28;20059;-74
2022/02/17 11:11:56;;;;;;;1.48;0.90;;;;;;;;;;5045194;28;20036;-72
2022/02/17 11:14:42;;;;;;;1.48;0.85;;;;;;;;;;5027820;28;20127;-74
2022/02/17 11:17:12;;;;;;;4.18;1.00;;;;;;;;;;5045986;28;20094;-72
2022/02/17 11:19:41;;;;;;;2.58;0.80;;;;;;;;;;5045220;28;20045;-73
2022/02/17 11:22:09;;;;;;;1.38;1.25;;;;;;;;;;5045553;28;20029;-73
2022/02/17 11:24:49;;;;;;;1.17;0.80;;;;;;;;;;5027618;28;20030;-73
2022/02/17 11:27:16;;;;;;;1.80;0.60;;;;;;;;;;5027699;28;20075;-74
2022/02/17 11:29:51;;;;;;;1.15;0.77;;;;;;;;;;5045226;28;20112;-73
2022/02/17 11:32:22;;;;;;;3.55;0.70;;;;;;;;;;5045420;28;20029;-73
2022/02/17 11:34:55;;;;;;;1.98;0.80;;;;;;;;;;5045095;28;20083;-73
2022/02/17 11:37:30;;;;;;;3.47;0.93;;;;;;;;;;5045375;28;20116;-71
2022/02/17 11:40:05;;;;;;;2.40;0.70;;;;;;;;;;5027055;28;20045;-73
2022/02/17 11:42:31;;;;;;;3.88;0.75;;;;;;;;;;5045233;28;20112;-74
2022/02/17 11:45:10;;;;;;;2.33;0.80;;;;;;;;;;5045014;28;20088;-72
2022/02/17 11:48:05;;;;;;;3.13;0.88;;;;;;;;;;5027054;28;20036;-73
2022/02/17 11:50:47;;;;;;;2.38;0.60;;;;;;;;;;5045315;28;20042;-72
2022/02/17 11:53:52;;;;;;;5.07;1.05;;;;;;;;;;5027037;28;20037;-73
2022/02/17 11:56:36;;;;;;;2.05;0.88;;;;;;;;;;5043936;28;20444;-72
2022/02/17 11:59:17;;;;;;;3.28;0.98;;;;;;;;;;5044734;28;20056;-73
2022/02/17 12:01:45;;;;;;;3.45;0.80;;;;;;;;;;5045026;28;20021;-74
2022/02/17 12:04:47;;;;;;;4.72;1.20;;;;;;;;;;5044668;28;20032;-73
2022/02/17 12:07:45;;;;;;;2.13;0.90;;;;;;;;;;5000145;28;20088;-71
2022/02/17 12:10:32;;;;;;;1.15;0.80;;;;;;;;;;4999813;28;20045;-73
2022/02/17 12:13:05;;;;;;;3.17;1.20;;;;;;;;;;5044335;28;20370;-71
2022/02/17 12:15:31;;;;;;;5.22;1.23;;;;;;;;;;5044186;28;20529;-74
2022/02/17 12:17:59;;;;;;;4.18;1.08;;;;;;;;;;5026836;28;20029;-75
2022/02/17 12:20:30;;;;;;;6.10;1.52;;;;;;;;;;5044158;28;20033;-71
2022/02/17 12:22:59;;;;;;;5.38;1.20;;;;;;;;;;5044228;28;20536;-73
2022/02/17 12:25:38;;;;;;;6.55;1.25;;;;;;;;;;5026326;28;20049;-72
2022/02/17 12:28:17;;;;;;;3.28;0.95;;;;;;;;;;5044199;28;20112;-74
2022/02/17 12:30:49;;;;;;;3.20;1.25;;;;;;;;;;5044443;28;20026;-73
2022/02/17 12:33:18;;;;;;;4.32;1.48;;;;;;;;;;5026076;28;20037;-73
2022/02/17 12:36:12;;;;;;;3.47;0.95;;;;;;;;;;5044200;28;20025;-72
2022/02/17 12:38:42;;;;;;;2.65;1.00;;;;;;;;;;5034417;28;20038;-73
2022/02/17 12:41:12;;;;;;;6.22;1.38;;;;;;;;;;5044039;28;20052;-71
2022/02/17 12:43:40;;;;;;;2.05;0.88;;;;;;;;;;5043636;28;20034;-72
2022/02/17 12:46:17;;;;;;;5.15;1.58;;;;;;;;;;5043889;28;20025;-73
2022/02/17 12:48:49;;;;;;;4.88;1.63;;;;;;;;;;5043740;28;20082;-72
2022/02/17 12:51:30;;;;;;;2.92;1.00;;;;;;;;;;5044170;28;20060;-73
2022/02/17 12:53:57;;;;;;;4.25;1.00;;;;;;;;;;5044031;28;20033;-74
2022/02/17 12:56:27;;;;;;;4.63;1.20;;;;;;;;;;5044015;28;20021;-72
2022/02/17 12:59:09;;;;;;;5.82;1.33;;;;;;;;;;5044129;28;20037;-74
2022/02/17 13:01:38;;;;;;;4.28;1.42;;;;;;;;;;5043681;28;20060;-74
2022/02/17 13:04:04;;;;;;;5.75;1.30;;;;;;;;;;5043345;28;20041;-74
2022/02/17 13:06:32;;;;;;;7.32;1.98;;;;;;;;;;5043706;28;20025;-73
2022/02/17 13:09:19;;;;;;;4.53;1.83;;;;;;;;;;5043432;28;20634;-72
2022/02/17 13:11:52;;;;;;;6.88;1.35;;;;;;;;;;5025708;28;20048;-74
2022/02/17 13:14:30;;;;;;;3.15;1.20;;;;;;;;;;5025653;28;20576;-72
2022/02/17 13:16:59;;;;;;;4.63;1.55;;;;;;;;;;5043757;28;20022;-72
2022/02/17 13:19:38;;;;;;;5.82;1.50;;;;;;;;;;5025476;28;20385;-73
2022/02/17 13:22:19;;;;;;;7.15;2.00;;;;;;;;;;5043311;28;20056;-73
2022/02/17 13:24:55;;;;;;;5.07;1.60;;;;;;;;;;5043182;28;20100;-73
2022/02/17 13:27:34;;;;;;;4.80;1.38;;;;;;;;;;5043249;28;20029;-71
2022/02/17 13:30:05;;;;;;;5.35;1.33;;;;;;;;;;5043084;28;20025;-74
2022/02/17 13:32:39;;;;;;;4.32;1.30;;;;;;;;;;5025382;28;20338;-73
2022/02/17 13:35:14;;;;;;;2.58;1.33;;;;;;;;;;5042667;28;20037;-73
2022/02/17 13:37:42;;;;;;;3.67;1.30;;;;;;;;;;5043411;28;20029;-73
2022/02/17 13:40:08;;;;;;;3.63;1.50;;;;;;;;;;5042592;28;20060;-73
2022/02/17 13:42:37;;;;;;;5.53;1.25;;;;;;;;;;5043170;28;20073;-73
2022/02/17 13:45:24;;;;;;;10.18;1.70;;;;;;;;;;5058150;28;20091;-73
2022/02/17 13:47:52;;;;;;;5.88;1.10;;;;;;;;;;5043162;28;20025;-72
2022/02/17 13:50:22;;;;;;;5.35;1.25;;;;;;;;;;5058705;28;20578;-73
2022/02/17 13:53:19;;;;;;;5.80;1.10;;;;;;;;;;5025528;28;20057;-73
2022/02/17 13:55:58;;;;;;;4.35;1.25;;;;;;;;;;5058429;28;20022;-73
2022/02/17 13:58:28;;;;;;;4.88;0.82;;;;;;;;;;5042907;28;20033;-73
2022/02/17 14:01:00;;;;;;;8.60;1.30;;;;;;;;;;5043196;28;20120;-73
2022/02/17 14:03:38;;;;;;;6.05;1.35;;;;;;;;;;5043165;28;20381;-73
2022/02/17 14:06:24;;;;;;;4.28;1.48;;;;;;;;;;5025344;28;20540;-72
2022/02/17 14:08:55;;;;;;;5.50;1.10;;;;;;;;;;5042894;28;20029;-72
2022/02/17 14:11:23;;;;;;;5.20;1.38;;;;;;;;;;5042966;28;20054;-72
2022/02/17 14:13:51;;;;;;;4.40;1.25;;;;;;;;;;5043121;28;20053;-71
2022/02/17 14:16:21;;;;;;;5.25;1.40;;;;;;;;;;5042948;28;20072;-72
2022/02/17 14:18:47;;;;;;;5.65;1.23;;;;;;;;;;5058115;28;20038;-71
2022/02/17 14:21:16;;;;;;;4.75;1.00;;;;;;;;;;5024847;28;20033;-72
2022/02/17 14:23:48;;;;;;;9.38;2.30;;;;;;;;;;5042834;28;20034;-72
2022/02/17 14:26:18;;;;;;;6.57;1.10;;;;;;;;;;5042739;28;20029;-72
2022/02/17 14:28:43;;;;;;;6.82;1.15;;;;;;;;;;5057787;28;20469;-71
2022/02/17 14:31:11;;;;;;;5.57;1.33;;;;;;;;;;5024822;28;20369;-72
2022/02/17 14:33:41;;;;;;;4.70;0.93;;;;;;;;;;5042553;28;20060;-72
2022/02/17 14:36:13;;;;;;;6.00;1.10;;;;;;;;;;5042552;28;20057;-72
2022/02/17 14:38:41;;;;;;;5.90;0.93;;;;;;;;;;5042870;28;20029;-72
2022/02/17 14:41:09;;;;;;;7.13;1.25;;;;;;;;;;5057698;28;20092;-72
2022/02/17 14:43:37;;;;;;;3.88;1.17;;;;;;;;;;5042357;28;20033;-72
2022/02/17 14:46:08;;;;;;;6.85;1.23;;;;;;;;;;5043078;28;20029;-72
2022/02/17 14:48:34;;;;;;;3.72;0.77;;;;;;;;;;5046301;28;20025;-72
2022/02/17 14:51:06;;;;;;;5.93;1.17;;;;;;;;;;5028373;28;20033;-73
2022/02/17 14:53:31;;;;;;;7.68;1.13;;;;;;;;;;5046087;28;20189;-72
2022/02/17 14:56:04;;;;;;;2.78;1.17;;;;;;;;;;5028206;28;20056;-72
2022/02/17 14:58:30;;;;;;;2.75;0.88;;;;;;;;;;5045831;28;20033;-72
2022/02/17 15:00:59;;;;;;;2.35;1.10;;;;;;;;;;5045763;28;20083;-72
2022/02/17 15:03:30;;;;;;;1.75;0.60;;;;;;;;;;5045690;28;20060;-72